sensor_id;sensor_type;location;lat;lon;timestamp;temperature;humidity
45319;DHT22;31057;48.498;32.260;2023-03-31T00:01:00;0.20;99.90
45319;DHT22;31057;48.498;32.260;2023-03-31T00:03:05;0.10;99.90
45319;DHT22;31057;48.498;32.260;2023-03-31T00:05:11;0.10;99.90
45319;DHT22;31057;48.498;32.260;2023-03-31T00:07:20;0.00;99.90
45319;DHT22;31057;48.498;32.260;2023-03-31T00:09:25;-0.20;99.90
45319;DHT22;31057;48.498;32.260;2023-03-31T00:11:30;-0.40;99.90
45319;DHT22;31057;48.498;32.260;2023-03-31T00:13:32;-0.40;99.90
45319;DHT22;31057;48.498;32.260;2023-03-31T00:15:34;-0.30;99.90
45319;DHT22;31057;48.498;32.260;2023-03-31T00:17:36;-0.30;99.90
45319;DHT22;31057;48.498;32.260;2023-03-31T00:19:39;-0.30;99.90
45319;DHT22;31057;48.498;32.260;2023-03-31T00:21:51;-0.20;99.90
45319;DHT22;31057;48.498;32.260;2023-03-31T00:23:58;-0.30;99.90
45319;DHT22;31057;48.498;32.260;2023-03-31T00:26:00;-0.40;99.90
45319;DHT22;31057;48.498;32.260;2023-03-31T00:28:02;-0.40;99.90
45319;DHT22;31057;48.498;32.260;2023-03-31T00:30:03;-0.50;99.90
45319;DHT22;31057;48.498;32.260;2023-03-31T00:32:07;-0.50;99.90
45319;DHT22;31057;48.498;32.260;2023-03-31T00:34:09;-0.40;99.90
45319;DHT22;31057;48.498;32.260;2023-03-31T00:36:11;-0.30;99.90
45319;DHT22;31057;48.498;32.260;2023-03-31T00:38:13;-0.30;99.90
45319;DHT22;31057;48.498;32.260;2023-03-31T00:40:15;-0.30;99.90
45319;DHT22;31057;48.498;32.260;2023-03-31T00:42:17;-0.50;99.90
45319;DHT22;31057;48.498;32.260;2023-03-31T00:44:22;-0.70;99.90
45319;DHT22;31057;48.498;32.260;2023-03-31T00:48:58;-0.60;99.90
45319;DHT22;31057;48.498;32.260;2023-03-31T00:51:04;-0.60;99.90
45319;DHT22;31057;48.498;32.260;2023-03-31T00:53:13;-0.70;99.90
45319;DHT22;31057;48.498;32.260;2023-03-31T00:55:22;-0.70;99.90
45319;DHT22;31057;48.498;32.260;2023-03-31T00:57:27;-0.70;99.90
45319;DHT22;31057;48.498;32.260;2023-03-31T00:59:32;-0.80;99.90
45319;DHT22;31057;48.498;32.260;2023-03-31T01:01:35;-0.70;99.90
45319;DHT22;31057;48.498;32.260;2023-03-31T01:03:37;-0.70;99.90
45319;DHT22;31057;48.498;32.260;2023-03-31T01:05:46;-0.60;99.90
45319;DHT22;31057;48.498;32.260;2023-03-31T01:07:51;-0.60;99.90
45319;DHT22;31057;48.498;32.260;2023-03-31T01:09:57;-0.50;99.90
45319;DHT22;31057;48.498;32.260;2023-03-31T01:12:05;-0.40;99.90
45319;DHT22;31057;48.498;32.260;2023-03-31T01:14:08;-0.30;99.90
45319;DHT22;31057;48.498;32.260;2023-03-31T01:16:11;-0.30;99.90
45319;DHT22;31057;48.498;32.260;2023-03-31T01:18:14;-0.20;99.90
45319;DHT22;31057;48.498;32.260;2023-03-31T01:22:44;-0.20;99.90
45319;DHT22;31057;48.498;32.260;2023-03-31T01:24:56;-0.20;99.90
45319;DHT22;31057;48.498;32.260;2023-03-31T01:27:15;-0.10;99.90
45319;DHT22;31057;48.498;32.260;2023-03-31T01:38:58;0.00;99.90
45319;DHT22;31057;48.498;32.260;2023-03-31T01:43:23;0.10;99.90
45319;DHT22;31057;48.498;32.260;2023-03-31T01:45:42;0.10;99.90
45319;DHT22;31057;48.498;32.260;2023-03-31T01:50:02;0.10;99.90
45319;DHT22;31057;48.498;32.260;2023-03-31T01:52:35;0.20;99.90
45319;DHT22;31057;48.498;32.260;2023-03-31T01:59:12;0.30;99.90
45319;DHT22;31057;48.498;32.260;2023-03-31T02:01:31;0.40;99.90
45319;DHT22;31057;48.498;32.260;2023-03-31T02:03:47;0.40;99.90
45319;DHT22;31057;48.498;32.260;2023-03-31T02:05:53;0.50;99.90
45319;DHT22;31057;48.498;32.260;2023-03-31T02:10:39;0.60;99.90
45319;DHT22;31057;48.498;32.260;2023-03-31T02:12:42;0.60;99.90
45319;DHT22;31057;48.498;32.260;2023-03-31T02:14:47;0.50;99.90
45319;DHT22;31057;48.498;32.260;2023-03-31T02:16:54;0.60;99.90
45319;DHT22;31057;48.498;32.260;2023-03-31T02:19:01;0.60;99.90
45319;DHT22;31057;48.498;32.260;2023-03-31T02:21:06;0.60;99.90
45319;DHT22;31057;48.498;32.260;2023-03-31T02:23:13;0.60;99.90
45319;DHT22;31057;48.498;32.260;2023-03-31T02:25:19;0.60;99.90
45319;DHT22;31057;48.498;32.260;2023-03-31T02:27:26;0.60;99.90
45319;DHT22;31057;48.498;32.260;2023-03-31T02:29:29;0.70;99.90
45319;DHT22;31057;48.498;32.260;2023-03-31T02:31:44;0.80;99.90
45319;DHT22;31057;48.498;32.260;2023-03-31T02:33:47;0.90;99.90
45319;DHT22;31057;48.498;32.260;2023-03-31T02:35:50;0.90;99.90
45319;DHT22;31057;48.498;32.260;2023-03-31T02:37:52;0.90;99.90
45319;DHT22;31057;48.498;32.260;2023-03-31T02:39:56;0.80;99.90
45319;DHT22;31057;48.498;32.260;2023-03-31T02:41:59;0.90;99.90
45319;DHT22;31057;48.498;32.260;2023-03-31T02:44:08;0.90;99.90
45319;DHT22;31057;48.498;32.260;2023-03-31T02:46:11;0.80;99.90
45319;DHT22;31057;48.498;32.260;2023-03-31T02:48:26;0.80;99.90
45319;DHT22;31057;48.498;32.260;2023-03-31T02:50:33;0.90;99.90
45319;DHT22;31057;48.498;32.260;2023-03-31T02:55:05;1.10;99.90
45319;DHT22;31057;48.498;32.260;2023-03-31T02:57:42;1.10;99.90
45319;DHT22;31057;48.498;32.260;2023-03-31T02:59:53;1.10;99.90
45319;DHT22;31057;48.498;32.260;2023-03-31T03:04:53;1.10;99.90
45319;DHT22;31057;48.498;32.260;2023-03-31T03:12:14;1.20;99.90
45319;DHT22;31057;48.498;32.260;2023-03-31T03:16:23;1.20;99.90
45319;DHT22;31057;48.498;32.260;2023-03-31T03:18:28;1.20;99.90
45319;DHT22;31057;48.498;32.260;2023-03-31T03:20:30;1.20;99.90
45319;DHT22;31057;48.498;32.260;2023-03-31T03:22:35;1.10;99.90
45319;DHT22;31057;48.498;32.260;2023-03-31T03:24:37;1.30;99.90
45319;DHT22;31057;48.498;32.260;2023-03-31T03:26:40;1.20;99.90
45319;DHT22;31057;48.498;32.260;2023-03-31T03:28:42;1.50;99.90
45319;DHT22;31057;48.498;32.260;2023-03-31T03:30:44;1.40;99.90
45319;DHT22;31057;48.498;32.260;2023-03-31T03:32:46;1.40;99.90
45319;DHT22;31057;48.498;32.260;2023-03-31T03:34:48;1.40;99.90
45319;DHT22;31057;48.498;32.260;2023-03-31T03:36:50;1.40;99.90
45319;DHT22;31057;48.498;32.260;2023-03-31T03:38:52;1.40;99.90
45319;DHT22;31057;48.498;32.260;2023-03-31T03:40:54;1.40;99.90
45319;DHT22;31057;48.498;32.260;2023-03-31T03:42:56;1.50;99.90
45319;DHT22;31057;48.498;32.260;2023-03-31T03:44:58;1.50;99.90
45319;DHT22;31057;48.498;32.260;2023-03-31T03:47:00;1.50;99.90
45319;DHT22;31057;48.498;32.260;2023-03-31T03:49:01;1.50;99.90
45319;DHT22;31057;48.498;32.260;2023-03-31T03:51:03;1.50;99.90
45319;DHT22;31057;48.498;32.260;2023-03-31T03:53:06;1.60;99.90
45319;DHT22;31057;48.498;32.260;2023-03-31T03:55:09;1.60;99.90
45319;DHT22;31057;48.498;32.260;2023-03-31T03:57:12;1.70;99.90
45319;DHT22;31057;48.498;32.260;2023-03-31T03:59:14;1.70;99.90
45319;DHT22;31057;48.498;32.260;2023-03-31T04:01:16;1.70;99.90
45319;DHT22;31057;48.498;32.260;2023-03-31T04:03:18;1.70;99.90
45319;DHT22;31057;48.498;32.260;2023-03-31T04:05:20;1.80;99.90
45319;DHT22;31057;48.498;32.260;2023-03-31T04:07:22;1.70;99.90
45319;DHT22;31057;48.498;32.260;2023-03-31T04:09:24;1.80;99.90
45319;DHT22;31057;48.498;32.260;2023-03-31T04:11:26;1.80;99.90
45319;DHT22;31057;48.498;32.260;2023-03-31T04:13:28;1.80;99.90
45319;DHT22;31057;48.498;32.260;2023-03-31T04:15:30;1.90;99.90
45319;DHT22;31057;48.498;32.260;2023-03-31T04:17:32;2.00;99.90
45319;DHT22;31057;48.498;32.260;2023-03-31T04:19:35;2.00;99.90
45319;DHT22;31057;48.498;32.260;2023-03-31T04:21:39;2.00;99.90
45319;DHT22;31057;48.498;32.260;2023-03-31T04:23:46;2.10;99.90
45319;DHT22;31057;48.498;32.260;2023-03-31T04:25:49;2.00;99.90
45319;DHT22;31057;48.498;32.260;2023-03-31T04:27:51;2.00;99.90
45319;DHT22;31057;48.498;32.260;2023-03-31T04:29:56;2.10;99.90
45319;DHT22;31057;48.498;32.260;2023-03-31T04:31:58;2.20;99.90
45319;DHT22;31057;48.498;32.260;2023-03-31T04:34:00;2.20;99.90
45319;DHT22;31057;48.498;32.260;2023-03-31T04:36:04;2.30;99.90
45319;DHT22;31057;48.498;32.260;2023-03-31T04:38:21;2.40;99.90
45319;DHT22;31057;48.498;32.260;2023-03-31T04:40:23;2.30;99.90
45319;DHT22;31057;48.498;32.260;2023-03-31T04:42:25;2.40;99.90
45319;DHT22;31057;48.498;32.260;2023-03-31T04:44:27;2.40;99.90
45319;DHT22;31057;48.498;32.260;2023-03-31T04:46:30;2.40;99.90
45319;DHT22;31057;48.498;32.260;2023-03-31T04:48:32;2.50;99.90
45319;DHT22;31057;48.498;32.260;2023-03-31T04:50:34;2.60;99.90
45319;DHT22;31057;48.498;32.260;2023-03-31T04:52:36;2.70;99.90
45319;DHT22;31057;48.498;32.260;2023-03-31T04:54:39;2.70;99.90
45319;DHT22;31057;48.498;32.260;2023-03-31T04:56:41;2.60;99.90
45319;DHT22;31057;48.498;32.260;2023-03-31T04:58:43;2.60;99.90
45319;DHT22;31057;48.498;32.260;2023-03-31T05:00:45;2.70;99.90
45319;DHT22;31057;48.498;32.260;2023-03-31T05:02:47;2.60;99.90
45319;DHT22;31057;48.498;32.260;2023-03-31T05:04:49;2.60;99.90
45319;DHT22;31057;48.498;32.260;2023-03-31T05:06:52;2.70;99.90
45319;DHT22;31057;48.498;32.260;2023-03-31T05:08:54;2.70;99.90
45319;DHT22;31057;48.498;32.260;2023-03-31T05:10:56;2.70;99.90
45319;DHT22;31057;48.498;32.260;2023-03-31T05:12:58;2.80;99.90
45319;DHT22;31057;48.498;32.260;2023-03-31T05:15:00;2.80;99.90
45319;DHT22;31057;48.498;32.260;2023-03-31T05:17:02;2.80;99.90
45319;DHT22;31057;48.498;32.260;2023-03-31T05:19:04;2.90;99.90
45319;DHT22;31057;48.498;32.260;2023-03-31T05:21:13;2.80;99.90
45319;DHT22;31057;48.498;32.260;2023-03-31T05:23:15;2.80;99.90
45319;DHT22;31057;48.498;32.260;2023-03-31T05:25:17;2.80;99.90
45319;DHT22;31057;48.498;32.260;2023-03-31T05:27:23;2.80;99.90
45319;DHT22;31057;48.498;32.260;2023-03-31T05:29:25;2.80;99.90
45319;DHT22;31057;48.498;32.260;2023-03-31T05:31:27;3.00;99.90
45319;DHT22;31057;48.498;32.260;2023-03-31T05:33:29;2.90;99.90
45319;DHT22;31057;48.498;32.260;2023-03-31T05:35:30;3.00;99.90
45319;DHT22;31057;48.498;32.260;2023-03-31T05:37:33;3.00;99.90
45319;DHT22;31057;48.498;32.260;2023-03-31T05:39:35;3.10;99.90
45319;DHT22;31057;48.498;32.260;2023-03-31T05:41:37;2.90;99.90
45319;DHT22;31057;48.498;32.260;2023-03-31T05:43:38;2.90;99.90
45319;DHT22;31057;48.498;32.260;2023-03-31T05:45:40;2.90;99.90
45319;DHT22;31057;48.498;32.260;2023-03-31T05:47:42;3.00;99.90
45319;DHT22;31057;48.498;32.260;2023-03-31T05:49:44;3.00;99.90
45319;DHT22;31057;48.498;32.260;2023-03-31T05:51:46;2.90;99.90
45319;DHT22;31057;48.498;32.260;2023-03-31T05:53:48;2.90;99.90
45319;DHT22;31057;48.498;32.260;2023-03-31T05:55:58;3.30;99.90
45319;DHT22;31057;48.498;32.260;2023-03-31T05:58:01;3.40;99.90
45319;DHT22;31057;48.498;32.260;2023-03-31T06:00:04;3.40;99.90
45319;DHT22;31057;48.498;32.260;2023-03-31T06:02:09;3.40;99.90
45319;DHT22;31057;48.498;32.260;2023-03-31T06:04:13;3.30;99.90
45319;DHT22;31057;48.498;32.260;2023-03-31T06:06:15;3.20;99.90
45319;DHT22;31057;48.498;32.260;2023-03-31T06:08:17;3.30;99.90
45319;DHT22;31057;48.498;32.260;2023-03-31T06:10:19;3.30;99.90
45319;DHT22;31057;48.498;32.260;2023-03-31T06:12:21;3.30;99.90
45319;DHT22;31057;48.498;32.260;2023-03-31T06:14:23;3.50;99.90
45319;DHT22;31057;48.498;32.260;2023-03-31T06:16:25;3.60;99.90
45319;DHT22;31057;48.498;32.260;2023-03-31T06:18:28;3.80;99.90
45319;DHT22;31057;48.498;32.260;2023-03-31T06:20:30;3.80;99.90
45319;DHT22;31057;48.498;32.260;2023-03-31T06:22:32;4.00;99.90
45319;DHT22;31057;48.498;32.260;2023-03-31T06:24:34;4.10;99.90
45319;DHT22;31057;48.498;32.260;2023-03-31T06:26:36;4.10;99.90
45319;DHT22;31057;48.498;32.260;2023-03-31T06:28:38;4.20;99.90
45319;DHT22;31057;48.498;32.260;2023-03-31T06:30:40;4.20;99.90
45319;DHT22;31057;48.498;32.260;2023-03-31T06:32:42;4.30;99.90
45319;DHT22;31057;48.498;32.260;2023-03-31T06:34:44;4.30;99.90
45319;DHT22;31057;48.498;32.260;2023-03-31T06:36:47;4.40;99.90
45319;DHT22;31057;48.498;32.260;2023-03-31T06:38:49;4.40;99.90
45319;DHT22;31057;48.498;32.260;2023-03-31T06:40:52;4.60;99.90
45319;DHT22;31057;48.498;32.260;2023-03-31T06:42:53;4.70;99.90
45319;DHT22;31057;48.498;32.260;2023-03-31T06:44:56;4.80;99.90
45319;DHT22;31057;48.498;32.260;2023-03-31T06:46:57;4.90;99.90
45319;DHT22;31057;48.498;32.260;2023-03-31T06:49:00;4.90;99.90
45319;DHT22;31057;48.498;32.260;2023-03-31T06:51:02;5.00;99.90
45319;DHT22;31057;48.498;32.260;2023-03-31T06:53:04;5.00;99.90
45319;DHT22;31057;48.498;32.260;2023-03-31T06:55:07;5.20;99.90
45319;DHT22;31057;48.498;32.260;2023-03-31T06:57:09;5.30;99.90
45319;DHT22;31057;48.498;32.260;2023-03-31T06:59:12;5.40;99.90
45319;DHT22;31057;48.498;32.260;2023-03-31T07:01:14;5.50;99.90
45319;DHT22;31057;48.498;32.260;2023-03-31T07:03:16;5.70;99.90
45319;DHT22;31057;48.498;32.260;2023-03-31T07:05:20;5.80;99.90
45319;DHT22;31057;48.498;32.260;2023-03-31T07:07:30;5.80;99.90
45319;DHT22;31057;48.498;32.260;2023-03-31T07:09:33;5.80;99.90
45319;DHT22;31057;48.498;32.260;2023-03-31T07:11:35;6.00;99.90
45319;DHT22;31057;48.498;32.260;2023-03-31T07:13:36;6.00;99.90
45319;DHT22;31057;48.498;32.260;2023-03-31T07:15:38;6.10;99.90
45319;DHT22;31057;48.498;32.260;2023-03-31T07:17:40;6.20;99.90
45319;DHT22;31057;48.498;32.260;2023-03-31T07:19:43;6.30;99.90
45319;DHT22;31057;48.498;32.260;2023-03-31T07:21:49;6.50;99.90
45319;DHT22;31057;48.498;32.260;2023-03-31T07:23:51;6.80;99.90
45319;DHT22;31057;48.498;32.260;2023-03-31T07:25:53;6.90;99.90
45319;DHT22;31057;48.498;32.260;2023-03-31T07:27:55;7.10;99.90
45319;DHT22;31057;48.498;32.260;2023-03-31T07:29:56;7.30;99.90
45319;DHT22;31057;48.498;32.260;2023-03-31T07:31:58;7.50;99.90
45319;DHT22;31057;48.498;32.260;2023-03-31T07:34:02;7.70;99.90
45319;DHT22;31057;48.498;32.260;2023-03-31T07:36:05;7.70;99.90
45319;DHT22;31057;48.498;32.260;2023-03-31T07:38:14;7.90;99.90
45319;DHT22;31057;48.498;32.260;2023-03-31T07:40:20;8.00;99.90
45319;DHT22;31057;48.498;32.260;2023-03-31T07:42:22;8.10;99.90
45319;DHT22;31057;48.498;32.260;2023-03-31T07:44:24;8.30;99.90
45319;DHT22;31057;48.498;32.260;2023-03-31T07:46:27;8.30;99.90
45319;DHT22;31057;48.498;32.260;2023-03-31T07:48:29;8.40;99.90
45319;DHT22;31057;48.498;32.260;2023-03-31T07:50:31;8.40;99.90
45319;DHT22;31057;48.498;32.260;2023-03-31T07:52:33;8.60;99.90
45319;DHT22;31057;48.498;32.260;2023-03-31T07:54:35;8.60;99.90
45319;DHT22;31057;48.498;32.260;2023-03-31T07:56:37;8.80;99.90
45319;DHT22;31057;48.498;32.260;2023-03-31T07:58:39;8.80;99.90
45319;DHT22;31057;48.498;32.260;2023-03-31T08:00:41;9.00;99.90
45319;DHT22;31057;48.498;32.260;2023-03-31T08:02:43;9.10;99.90
45319;DHT22;31057;48.498;32.260;2023-03-31T08:04:46;9.30;99.90
45319;DHT22;31057;48.498;32.260;2023-03-31T08:06:48;9.30;99.90
45319;DHT22;31057;48.498;32.260;2023-03-31T08:08:52;9.40;99.90
45319;DHT22;31057;48.498;32.260;2023-03-31T08:10:54;9.40;99.90
45319;DHT22;31057;48.498;32.260;2023-03-31T08:12:56;9.70;99.90
45319;DHT22;31057;48.498;32.260;2023-03-31T08:14:58;9.90;99.90
45319;DHT22;31057;48.498;32.260;2023-03-31T08:17:00;9.90;99.90
45319;DHT22;31057;48.498;32.260;2023-03-31T08:19:02;10.10;99.90
45319;DHT22;31057;48.498;32.260;2023-03-31T08:21:03;10.20;99.90
45319;DHT22;31057;48.498;32.260;2023-03-31T08:23:06;10.20;99.90
45319;DHT22;31057;48.498;32.260;2023-03-31T08:25:12;10.30;99.90
45319;DHT22;31057;48.498;32.260;2023-03-31T08:27:14;10.30;99.90
45319;DHT22;31057;48.498;32.260;2023-03-31T08:29:17;10.60;99.90
45319;DHT22;31057;48.498;32.260;2023-03-31T08:31:20;10.70;99.90
45319;DHT22;31057;48.498;32.260;2023-03-31T08:33:27;10.70;99.90
45319;DHT22;31057;48.498;32.260;2023-03-31T08:35:30;10.70;99.90
45319;DHT22;31057;48.498;32.260;2023-03-31T08:37:32;10.80;99.90
45319;DHT22;31057;48.498;32.260;2023-03-31T08:39:34;10.90;99.90
45319;DHT22;31057;48.498;32.260;2023-03-31T08:44:00;11.10;99.90
45319;DHT22;31057;48.498;32.260;2023-03-31T08:46:03;11.20;99.90
45319;DHT22;31057;48.498;32.260;2023-03-31T08:50:24;11.30;99.90
45319;DHT22;31057;48.498;32.260;2023-03-31T08:52:35;11.30;99.90
45319;DHT22;31057;48.498;32.260;2023-03-31T08:54:45;11.30;99.90
45319;DHT22;31057;48.498;32.260;2023-03-31T08:56:49;11.40;99.90
45319;DHT22;31057;48.498;32.260;2023-03-31T08:58:52;11.50;99.90
45319;DHT22;31057;48.498;32.260;2023-03-31T09:03:34;11.50;99.90
45319;DHT22;31057;48.498;32.260;2023-03-31T09:05:44;11.50;99.90
45319;DHT22;31057;48.498;32.260;2023-03-31T09:10:38;11.70;99.90
45319;DHT22;31057;48.498;32.260;2023-03-31T09:14:57;11.80;99.90
45319;DHT22;31057;48.498;32.260;2023-03-31T09:22:20;11.80;99.90
45319;DHT22;31057;48.498;32.260;2023-03-31T09:24:31;12.00;99.90
45319;DHT22;31057;48.498;32.260;2023-03-31T09:26:55;12.00;99.90
45319;DHT22;31057;48.498;32.260;2023-03-31T09:28:59;11.90;99.90
45319;DHT22;31057;48.498;32.260;2023-03-31T09:31:16;12.00;99.90
45319;DHT22;31057;48.498;32.260;2023-03-31T09:33:30;12.10;99.90
45319;DHT22;31057;48.498;32.260;2023-03-31T09:35:35;12.20;99.90
45319;DHT22;31057;48.498;32.260;2023-03-31T09:37:37;12.20;99.90
45319;DHT22;31057;48.498;32.260;2023-03-31T09:39:39;12.00;99.90
45319;DHT22;31057;48.498;32.260;2023-03-31T09:41:44;12.10;99.90
45319;DHT22;31057;48.498;32.260;2023-03-31T09:43:47;12.20;99.90
45319;DHT22;31057;48.498;32.260;2023-03-31T09:45:50;12.10;99.90
45319;DHT22;31057;48.498;32.260;2023-03-31T09:48:18;12.10;99.90
45319;DHT22;31057;48.498;32.260;2023-03-31T09:50:22;12.20;99.90
45319;DHT22;31057;48.498;32.260;2023-03-31T09:52:43;12.30;99.90
45319;DHT22;31057;48.498;32.260;2023-03-31T09:54:50;12.40;99.90
45319;DHT22;31057;48.498;32.260;2023-03-31T09:56:54;12.40;99.90
45319;DHT22;31057;48.498;32.260;2023-03-31T09:59:00;12.30;99.90
45319;DHT22;31057;48.498;32.260;2023-03-31T10:01:05;12.40;99.90
45319;DHT22;31057;48.498;32.260;2023-03-31T10:03:12;12.50;99.90
45319;DHT22;31057;48.498;32.260;2023-03-31T10:05:37;12.30;99.90
45319;DHT22;31057;48.498;32.260;2023-03-31T10:07:43;12.40;99.90
45319;DHT22;31057;48.498;32.260;2023-03-31T10:09:45;12.30;99.90
45319;DHT22;31057;48.498;32.260;2023-03-31T10:12:08;12.40;99.90
45319;DHT22;31057;48.498;32.260;2023-03-31T10:14:15;12.30;99.90
45319;DHT22;31057;48.498;32.260;2023-03-31T10:16:21;12.20;99.90
45319;DHT22;31057;48.498;32.260;2023-03-31T10:18:33;12.10;99.90
45319;DHT22;31057;48.498;32.260;2023-03-31T10:20:43;12.20;99.90
45319;DHT22;31057;48.498;32.260;2023-03-31T10:22:45;12.30;99.90
45319;DHT22;31057;48.498;32.260;2023-03-31T10:24:50;12.50;99.90
45319;DHT22;31057;48.498;32.260;2023-03-31T10:26:55;12.50;99.90
45319;DHT22;31057;48.498;32.260;2023-03-31T10:28:57;12.50;99.90
45319;DHT22;31057;48.498;32.260;2023-03-31T10:30:59;12.50;99.90
45319;DHT22;31057;48.498;32.260;2023-03-31T10:33:12;12.40;99.90
45319;DHT22;31057;48.498;32.260;2023-03-31T10:35:25;12.40;99.90
45319;DHT22;31057;48.498;32.260;2023-03-31T10:37:28;12.30;99.90
45319;DHT22;31057;48.498;32.260;2023-03-31T10:39:32;12.30;99.90
45319;DHT22;31057;48.498;32.260;2023-03-31T10:41:34;12.40;99.90
45319;DHT22;31057;48.498;32.260;2023-03-31T10:43:37;12.50;99.90
45319;DHT22;31057;48.498;32.260;2023-03-31T10:45:49;12.60;99.90
45319;DHT22;31057;48.498;32.260;2023-03-31T10:47:54;12.70;99.90
45319;DHT22;31057;48.498;32.260;2023-03-31T10:49:56;12.70;99.90
45319;DHT22;31057;48.498;32.260;2023-03-31T10:51:59;12.80;99.90
45319;DHT22;31057;48.498;32.260;2023-03-31T10:54:02;12.80;99.90
45319;DHT22;31057;48.498;32.260;2023-03-31T11:17:30;13.10;99.90
45319;DHT22;31057;48.498;32.260;2023-03-31T11:26:21;13.00;99.90
45319;DHT22;31057;48.498;32.260;2023-03-31T11:45:16;13.90;99.90
45319;DHT22;31057;48.498;32.260;2023-03-31T11:47:23;13.90;99.90
45319;DHT22;31057;48.498;32.260;2023-03-31T11:49:34;13.80;99.90
45319;DHT22;31057;48.498;32.260;2023-03-31T11:51:55;13.90;99.90
45319;DHT22;31057;48.498;32.260;2023-03-31T11:53:59;14.10;99.90
45319;DHT22;31057;48.498;32.260;2023-03-31T11:56:03;14.10;99.90
45319;DHT22;31057;48.498;32.260;2023-03-31T12:00:42;14.30;99.90
45319;DHT22;31057;48.498;32.260;2023-03-31T12:02:53;14.40;99.90
45319;DHT22;31057;48.498;32.260;2023-03-31T12:04:59;14.70;99.90
45319;DHT22;31057;48.498;32.260;2023-03-31T12:07:26;14.80;99.90
45319;DHT22;31057;48.498;32.260;2023-03-31T12:14:14;13.60;99.90
45319;DHT22;31057;48.498;32.260;2023-03-31T12:18:33;13.80;99.90
45319;DHT22;31057;48.498;32.260;2023-03-31T12:20:41;13.80;99.90
45319;DHT22;31057;48.498;32.260;2023-03-31T12:22:47;13.90;99.90
45319;DHT22;31057;48.498;32.260;2023-03-31T12:24:51;13.90;99.90
45319;DHT22;31057;48.498;32.260;2023-03-31T12:27:02;13.90;99.90
45319;DHT22;31057;48.498;32.260;2023-03-31T12:29:18;13.80;99.90
45319;DHT22;31057;48.498;32.260;2023-03-31T12:31:23;13.60;99.90
45319;DHT22;31057;48.498;32.260;2023-03-31T12:33:37;13.70;99.90
45319;DHT22;31057;48.498;32.260;2023-03-31T12:43:19;13.50;99.90
45319;DHT22;31057;48.498;32.260;2023-03-31T12:45:29;13.40;99.90
45319;DHT22;31057;48.498;32.260;2023-03-31T12:59:32;12.90;99.90
45319;DHT22;31057;48.498;32.260;2023-03-31T13:04:21;13.10;99.90
45319;DHT22;31057;48.498;32.260;2023-03-31T13:08:49;12.90;99.90
45319;DHT22;31057;48.498;32.260;2023-03-31T13:10:53;12.90;99.90
45319;DHT22;31057;48.498;32.260;2023-03-31T13:15:03;13.10;99.90
45319;DHT22;31057;48.498;32.260;2023-03-31T13:17:27;13.20;99.90
45319;DHT22;31057;48.498;32.260;2023-03-31T13:19:32;13.10;99.90
45319;DHT22;31057;48.498;32.260;2023-03-31T13:22:02;13.00;99.90
45319;DHT22;31057;48.498;32.260;2023-03-31T13:24:06;13.00;99.90
45319;DHT22;31057;48.498;32.260;2023-03-31T13:26:41;13.00;99.90
45319;DHT22;31057;48.498;32.260;2023-03-31T13:31:14;13.10;99.90
45319;DHT22;31057;48.498;32.260;2023-03-31T13:33:31;13.10;99.90
45319;DHT22;31057;48.498;32.260;2023-03-31T13:35:34;13.20;99.90
45319;DHT22;31057;48.498;32.260;2023-03-31T13:38:00;13.30;99.90
45319;DHT22;31057;48.498;32.260;2023-03-31T13:51:58;13.00;99.90
45319;DHT22;31057;48.498;32.260;2023-03-31T13:59:04;12.80;99.90
45319;DHT22;31057;48.498;32.260;2023-03-31T14:01:25;12.80;99.90
45319;DHT22;31057;48.498;32.260;2023-03-31T14:08:02;12.70;99.90
45319;DHT22;31057;48.498;32.260;2023-03-31T14:10:25;12.60;99.90
45319;DHT22;31057;48.498;32.260;2023-03-31T14:12:32;12.60;99.90
45319;DHT22;31057;48.498;32.260;2023-03-31T14:14:39;12.60;99.90
45319;DHT22;31057;48.498;32.260;2023-03-31T14:16:48;12.50;99.90
45319;DHT22;31057;48.498;32.260;2023-03-31T14:18:57;12.50;99.90
45319;DHT22;31057;48.498;32.260;2023-03-31T14:21:26;12.50;99.90
45319;DHT22;31057;48.498;32.260;2023-03-31T14:23:37;12.50;99.90
45319;DHT22;31057;48.498;32.260;2023-03-31T14:28:29;12.40;99.90
45319;DHT22;31057;48.498;32.260;2023-03-31T14:30:51;12.30;99.90
45319;DHT22;31057;48.498;32.260;2023-03-31T14:37:34;12.20;99.90
45319;DHT22;31057;48.498;32.260;2023-03-31T14:39:39;12.20;99.90
45319;DHT22;31057;48.498;32.260;2023-03-31T14:41:42;12.20;99.90
45319;DHT22;31057;48.498;32.260;2023-03-31T14:43:49;12.20;99.90
45319;DHT22;31057;48.498;32.260;2023-03-31T14:46:20;12.20;99.90
45319;DHT22;31057;48.498;32.260;2023-03-31T14:48:22;12.30;99.90
45319;DHT22;31057;48.498;32.260;2023-03-31T14:50:28;12.20;99.90
45319;DHT22;31057;48.498;32.260;2023-03-31T14:52:32;12.20;99.90
45319;DHT22;31057;48.498;32.260;2023-03-31T14:54:36;12.20;99.90
45319;DHT22;31057;48.498;32.260;2023-03-31T14:56:40;12.20;99.90
45319;DHT22;31057;48.498;32.260;2023-03-31T14:58:48;12.10;99.90
45319;DHT22;31057;48.498;32.260;2023-03-31T15:00:52;12.10;99.90
45319;DHT22;31057;48.498;32.260;2023-03-31T15:02:54;12.10;99.90
45319;DHT22;31057;48.498;32.260;2023-03-31T15:04:58;12.10;99.90
45319;DHT22;31057;48.498;32.260;2023-03-31T15:07:02;12.10;99.90
45319;DHT22;31057;48.498;32.260;2023-03-31T15:09:06;12.10;99.90
45319;DHT22;31057;48.498;32.260;2023-03-31T15:11:13;12.10;99.90
45319;DHT22;31057;48.498;32.260;2023-03-31T15:15:32;12.00;99.90
45319;DHT22;31057;48.498;32.260;2023-03-31T15:17:38;11.90;99.90
45319;DHT22;31057;48.498;32.260;2023-03-31T15:19:40;11.90;99.90
45319;DHT22;31057;48.498;32.260;2023-03-31T15:21:43;11.90;99.90
45319;DHT22;31057;48.498;32.260;2023-03-31T15:23:45;11.80;99.90
45319;DHT22;31057;48.498;32.260;2023-03-31T15:25:47;11.80;99.90
45319;DHT22;31057;48.498;32.260;2023-03-31T15:27:56;11.70;99.90
45319;DHT22;31057;48.498;32.260;2023-03-31T15:30:02;11.70;99.90
45319;DHT22;31057;48.498;32.260;2023-03-31T15:32:12;11.60;99.90
45319;DHT22;31057;48.498;32.260;2023-03-31T15:34:31;11.50;99.90
45319;DHT22;31057;48.498;32.260;2023-03-31T15:36:34;11.50;99.90
45319;DHT22;31057;48.498;32.260;2023-03-31T15:38:36;11.50;99.90
45319;DHT22;31057;48.498;32.260;2023-03-31T15:40:39;11.50;99.90
45319;DHT22;31057;48.498;32.260;2023-03-31T15:42:44;11.40;99.90
45319;DHT22;31057;48.498;32.260;2023-03-31T15:47:33;11.30;99.90
45319;DHT22;31057;48.498;32.260;2023-03-31T15:49:50;11.30;99.90
45319;DHT22;31057;48.498;32.260;2023-03-31T15:51:54;11.30;99.90
45319;DHT22;31057;48.498;32.260;2023-03-31T15:53:57;11.10;99.90
45319;DHT22;31057;48.498;32.260;2023-03-31T15:55:59;11.10;99.90
45319;DHT22;31057;48.498;32.260;2023-03-31T15:58:02;11.10;99.90
45319;DHT22;31057;48.498;32.260;2023-03-31T16:00:05;11.10;99.90